sensor_id;sensor_type;location;lat;lon;timestamp;pressure;altitude;pressure_sealevel;temperature;humidity
49827;BME280;35715;51.570;6.036;2023-07-30T00:00:03;100811.03;;;18.20;77.62
49827;BME280;35715;51.570;6.036;2023-07-30T00:02:28;100816.19;;;18.18;77.30
49827;BME280;35715;51.570;6.036;2023-07-30T00:04:54;100817.88;;;18.18;77.78
49827;BME280;35715;51.570;6.036;2023-07-30T00:07:19;100812.50;;;18.13;76.99
49827;BME280;35715;51.570;6.036;2023-07-30T00:09:44;100808.97;;;18.11;77.35
49827;BME280;35715;51.570;6.036;2023-07-30T00:12:10;100818.50;;;18.11;77.92
49827;BME280;35715;51.570;6.036;2023-07-30T00:14:35;100812.28;;;18.07;77.38
49827;BME280;35715;51.570;6.036;2023-07-30T00:17:01;100813.97;;;18.05;77.61
49827;BME280;35715;51.570;6.036;2023-07-30T00:19:26;100805.09;;;18.01;77.82
49827;BME280;35715;51.570;6.036;2023-07-30T00:21:52;100801.50;;;17.98;78.65
49827;BME280;35715;51.570;6.036;2023-07-30T00:24:17;100799.50;;;17.90;78.19
49827;BME280;35715;51.570;6.036;2023-07-30T00:26:42;100805.31;;;17.85;78.64
49827;BME280;35715;51.570;6.036;2023-07-30T00:29:08;100812.22;;;17.83;78.65
49827;BME280;35715;51.570;6.036;2023-07-30T00:31:33;100812.94;;;17.79;78.07
49827;BME280;35715;51.570;6.036;2023-07-30T00:33:58;100806.78;;;17.77;78.09
49827;BME280;35715;51.570;6.036;2023-07-30T00:36:24;100807.66;;;17.77;77.67
49827;BME280;35715;51.570;6.036;2023-07-30T00:38:49;100809.31;;;17.75;77.28
49827;BME280;35715;51.570;6.036;2023-07-30T00:41:15;100811.00;;;17.73;78.13
49827;BME280;35715;51.570;6.036;2023-07-30T00:43:40;100807.44;;;17.71;77.19
49827;BME280;35715;51.570;6.036;2023-07-30T00:46:05;100804.69;;;17.68;77.65
49827;BME280;35715;51.570;6.036;2023-07-30T00:48:31;100811.66;;;17.67;77.40
49827;BME280;35715;51.570;6.036;2023-07-30T00:50:57;100807.19;;;17.65;77.40
49827;BME280;35715;51.570;6.036;2023-07-30T00:53:26;100821.00;;;17.62;76.88
49827;BME280;35715;51.570;6.036;2023-07-30T00:55:51;100812.28;;;17.62;77.44
49827;BME280;35715;51.570;6.036;2023-07-30T00:58:18;100816.53;;;17.58;78.07
49827;BME280;35715;51.570;6.036;2023-07-30T01:00:46;100821.72;;;17.58;78.31
49827;BME280;35715;51.570;6.036;2023-07-30T01:03:11;100814.72;;;17.57;78.18
49827;BME280;35715;51.570;6.036;2023-07-30T01:05:36;100820.72;;;17.54;78.10
49827;BME280;35715;51.570;6.036;2023-07-30T01:08:02;100824.94;;;17.51;77.70
49827;BME280;35715;51.570;6.036;2023-07-30T01:10:30;100827.47;;;17.49;77.95
49827;BME280;35715;51.570;6.036;2023-07-30T01:12:58;100830.78;;;17.45;77.67
49827;BME280;35715;51.570;6.036;2023-07-30T01:15:24;100836.78;;;17.43;77.35
49827;BME280;35715;51.570;6.036;2023-07-30T01:17:50;100833.22;;;17.41;77.98
49827;BME280;35715;51.570;6.036;2023-07-30T01:20:16;100832.28;;;17.38;78.04
49827;BME280;35715;51.570;6.036;2023-07-30T01:22:42;100835.69;;;17.37;78.20
49827;BME280;35715;51.570;6.036;2023-07-30T01:25:07;100834.81;;;17.37;77.94
49827;BME280;35715;51.570;6.036;2023-07-30T01:27:39;100825.09;;;17.33;77.43
49827;BME280;35715;51.570;6.036;2023-07-30T01:30:22;100827.56;;;17.30;77.88
49827;BME280;35715;51.570;6.036;2023-07-30T01:32:49;100831.06;;;17.30;77.91
49827;BME280;35715;51.570;6.036;2023-07-30T01:35:18;100837.19;;;17.31;78.24
49827;BME280;35715;51.570;6.036;2023-07-30T01:37:46;100840.63;;;17.30;77.90
49827;BME280;35715;51.570;6.036;2023-07-30T01:40:12;100838.75;;;17.27;78.17
49827;BME280;35715;51.570;6.036;2023-07-30T01:42:38;100839.56;;;17.25;78.21
49827;BME280;35715;51.570;6.036;2023-07-30T01:45:05;100845.72;;;17.27;78.02
49827;BME280;35715;51.570;6.036;2023-07-30T01:47:30;100844.53;;;17.18;77.96
49827;BME280;35715;51.570;6.036;2023-07-30T01:49:56;100852.34;;;17.18;78.14
49827;BME280;35715;51.570;6.036;2023-07-30T01:52:21;100855.88;;;17.20;78.56
49827;BME280;35715;51.570;6.036;2023-07-30T01:54:46;100851.50;;;17.19;78.47
49827;BME280;35715;51.570;6.036;2023-07-30T01:57:12;100854.94;;;17.18;78.42
49827;BME280;35715;51.570;6.036;2023-07-30T01:59:38;100859.25;;;17.18;79.02
49827;BME280;35715;51.570;6.036;2023-07-30T02:02:04;100863.53;;;17.16;78.72
49827;BME280;35715;51.570;6.036;2023-07-30T02:04:29;100850.38;;;17.13;78.61
49827;BME280;35715;51.570;6.036;2023-07-30T02:06:55;100858.88;;;17.09;78.82
49827;BME280;35715;51.570;6.036;2023-07-30T02:09:20;100853.59;;;17.07;78.96
49827;BME280;35715;51.570;6.036;2023-07-30T02:11:46;100844.91;;;17.07;79.34
49827;BME280;35715;51.570;6.036;2023-07-30T02:14:13;100851.81;;;17.06;79.10
49827;BME280;35715;51.570;6.036;2023-07-30T02:16:38;100850.06;;;17.05;79.51
49827;BME280;35715;51.570;6.036;2023-07-30T02:19:03;100850.75;;;17.01;79.28
49827;BME280;35715;51.570;6.036;2023-07-30T02:21:29;100855.84;;;16.98;79.43
49827;BME280;35715;51.570;6.036;2023-07-30T02:23:58;100851.38;;;16.95;79.50
49827;BME280;35715;51.570;6.036;2023-07-30T02:26:24;100846.94;;;16.93;79.73
49827;BME280;35715;51.570;6.036;2023-07-30T02:28:49;100846.81;;;16.90;79.73
49827;BME280;35715;51.570;6.036;2023-07-30T02:31:14;100845.75;;;16.86;80.40
49827;BME280;35715;51.570;6.036;2023-07-30T02:33:40;100840.41;;;16.83;80.43
49827;BME280;35715;51.570;6.036;2023-07-30T02:36:05;100842.88;;;16.80;80.48
49827;BME280;35715;51.570;6.036;2023-07-30T02:38:30;100842.69;;;16.75;80.23
49827;BME280;35715;51.570;6.036;2023-07-30T02:40:56;100837.28;;;16.71;80.86
49827;BME280;35715;51.570;6.036;2023-07-30T02:43:21;100834.63;;;16.69;80.75
49827;BME280;35715;51.570;6.036;2023-07-30T02:45:47;100839.06;;;16.72;81.21
49827;BME280;35715;51.570;6.036;2023-07-30T02:48:13;100837.22;;;16.69;81.07
49827;BME280;35715;51.570;6.036;2023-07-30T02:50:44;100837.16;;;16.67;81.15
49827;BME280;35715;51.570;6.036;2023-07-30T02:53:10;100832.63;;;16.63;81.49
49827;BME280;35715;51.570;6.036;2023-07-30T02:55:35;100836.97;;;16.63;81.62
49827;BME280;35715;51.570;6.036;2023-07-30T02:58:01;100832.44;;;16.59;81.61
49827;BME280;35715;51.570;6.036;2023-07-30T03:00:26;100837.56;;;16.57;81.48
49827;BME280;35715;51.570;6.036;2023-07-30T03:02:51;100835.84;;;16.58;82.16
49827;BME280;35715;51.570;6.036;2023-07-30T03:05:17;100841.91;;;16.57;82.29
49827;BME280;35715;51.570;6.036;2023-07-30T03:07:42;100842.53;;;16.51;82.39
49827;BME280;35715;51.570;6.036;2023-07-30T03:10:08;100844.38;;;16.54;82.36
49827;BME280;35715;51.570;6.036;2023-07-30T03:12:33;100853.75;;;16.50;82.62
49827;BME280;35715;51.570;6.036;2023-07-30T03:14:58;100849.38;;;16.49;83.14
49827;BME280;35715;51.570;6.036;2023-07-30T03:17:24;100850.47;;;16.54;82.79
49827;BME280;35715;51.570;6.036;2023-07-30T03:19:50;100855.06;;;16.60;83.25
49827;BME280;35715;51.570;6.036;2023-07-30T03:22:15;100861.53;;;16.70;83.19
49827;BME280;35715;51.570;6.036;2023-07-30T03:24:41;100868.47;;;16.69;83.73
49827;BME280;35715;51.570;6.036;2023-07-30T03:27:06;100864.59;;;16.80;83.62
49827;BME280;35715;51.570;6.036;2023-07-30T03:29:32;100863.09;;;16.85;83.52
49827;BME280;35715;51.570;6.036;2023-07-30T03:31:57;100867.72;;;16.91;83.54
49827;BME280;35715;51.570;6.036;2023-07-30T03:34:22;100862.66;;;16.94;82.94
49827;BME280;35715;51.570;6.036;2023-07-30T03:36:48;100867.00;;;16.95;83.06
49827;BME280;35715;51.570;6.036;2023-07-30T03:39:13;100871.59;;;17.01;83.04
49827;BME280;35715;51.570;6.036;2023-07-30T03:41:38;100869.81;;;17.00;83.06
49827;BME280;35715;51.570;6.036;2023-07-30T03:44:04;100875.16;;;17.03;83.35
49827;BME280;35715;51.570;6.036;2023-07-30T03:46:29;100870.97;;;17.07;83.64
49827;BME280;35715;51.570;6.036;2023-07-30T03:48:55;100873.75;;;17.11;82.83
49827;BME280;35715;51.570;6.036;2023-07-30T03:51:20;100871.28;;;17.14;82.86
49827;BME280;35715;51.570;6.036;2023-07-30T03:53:45;100867.63;;;17.11;82.48
49827;BME280;35715;51.570;6.036;2023-07-30T03:56:11;100872.84;;;17.11;82.63
49827;BME280;35715;51.570;6.036;2023-07-30T03:58:36;100873.84;;;17.13;82.94
49827;BME280;35715;51.570;6.036;2023-07-30T04:01:02;100877.44;;;17.16;82.70
49827;BME280;35715;51.570;6.036;2023-07-30T04:03:27;100871.28;;;17.14;82.44
49827;BME280;35715;51.570;6.036;2023-07-30T04:05:52;100874.72;;;17.13;82.76
49827;BME280;35715;51.570;6.036;2023-07-30T04:08:18;100878.28;;;17.15;83.13
49827;BME280;35715;51.570;6.036;2023-07-30T04:10:43;100886.25;;;17.18;83.20
49827;BME280;35715;51.570;6.036;2023-07-30T04:13:08;100888.97;;;17.22;83.18
49827;BME280;35715;51.570;6.036;2023-07-30T04:15:34;100890.72;;;17.23;83.65
49827;BME280;35715;51.570;6.036;2023-07-30T04:17:59;100882.84;;;17.21;83.55
49827;BME280;35715;51.570;6.036;2023-07-30T04:20:25;100886.25;;;17.18;83.56
49827;BME280;35715;51.570;6.036;2023-07-30T04:22:51;100884.63;;;17.22;83.36
49827;BME280;35715;51.570;6.036;2023-07-30T04:25:16;100889.16;;;17.26;83.66
49827;BME280;35715;51.570;6.036;2023-07-30T04:27:47;100884.81;;;17.27;83.91
49827;BME280;35715;51.570;6.036;2023-07-30T04:30:13;100890.91;;;17.27;83.87
49827;BME280;35715;51.570;6.036;2023-07-30T04:32:38;100891.78;;;17.26;83.76
49827;BME280;35715;51.570;6.036;2023-07-30T04:35:04;100888.44;;;17.30;84.22
49827;BME280;35715;51.570;6.036;2023-07-30T04:37:29;100891.22;;;17.35;84.28
49827;BME280;35715;51.570;6.036;2023-07-30T04:39:55;100894.88;;;17.38;83.76
49827;BME280;35715;51.570;6.036;2023-07-30T04:42:20;100892.25;;;17.38;84.14
49827;BME280;35715;51.570;6.036;2023-07-30T04:44:45;100888.00;;;17.41;83.56
49827;BME280;35715;51.570;6.036;2023-07-30T04:47:11;100890.72;;;17.44;83.82
49827;BME280;35715;51.570;6.036;2023-07-30T04:49:36;100888.97;;;17.43;83.71
49827;BME280;35715;51.570;6.036;2023-07-30T04:52:06;100893.31;;;17.44;83.77
49827;BME280;35715;51.570;6.036;2023-07-30T04:54:31;100891.69;;;17.46;84.09
49827;BME280;35715;51.570;6.036;2023-07-30T04:56:57;100895.25;;;17.48;83.63
49827;BME280;35715;51.570;6.036;2023-07-30T04:59:22;100888.28;;;17.48;83.58
49827;BME280;35715;51.570;6.036;2023-07-30T05:01:47;100901.41;;;17.50;83.45
49827;BME280;35715;51.570;6.036;2023-07-30T05:04:13;100896.19;;;17.50;83.68
49827;BME280;35715;51.570;6.036;2023-07-30T05:06:38;100894.47;;;17.50;83.91
49827;BME280;35715;51.570;6.036;2023-07-30T05:09:03;100901.47;;;17.51;83.97
49827;BME280;35715;51.570;6.036;2023-07-30T05:11:29;100904.44;;;17.61;83.83
49827;BME280;35715;51.570;6.036;2023-07-30T05:13:54;100901.06;;;17.63;83.82
49827;BME280;35715;51.570;6.036;2023-07-30T05:16:19;100901.13;;;17.65;84.08
49827;BME280;35715;51.570;6.036;2023-07-30T05:18:45;100904.72;;;17.67;84.38
49827;BME280;35715;51.570;6.036;2023-07-30T05:21:10;100911.81;;;17.71;84.20
49827;BME280;35715;51.570;6.036;2023-07-30T05:23:35;100905.06;;;17.76;84.79
49827;BME280;35715;51.570;6.036;2023-07-30T05:26:01;100911.22;;;17.78;84.56
49827;BME280;35715;51.570;6.036;2023-07-30T05:28:26;100913.84;;;17.78;84.27
49827;BME280;35715;51.570;6.036;2023-07-30T05:30:52;100915.56;;;17.78;84.02
49827;BME280;35715;51.570;6.036;2023-07-30T05:33:17;100913.03;;;17.79;84.09
49827;BME280;35715;51.570;6.036;2023-07-30T05:35:42;100926.13;;;17.81;84.24
49827;BME280;35715;51.570;6.036;2023-07-30T05:38:08;100920.97;;;17.82;84.29
49827;BME280;35715;51.570;6.036;2023-07-30T05:40:34;100917.44;;;17.82;84.42
49827;BME280;35715;51.570;6.036;2023-07-30T05:43:00;100920.91;;;17.81;84.50
49827;BME280;35715;51.570;6.036;2023-07-30T05:45:26;100923.56;;;17.82;84.47
49827;BME280;35715;51.570;6.036;2023-07-30T05:47:51;100923.63;;;17.84;84.80
49827;BME280;35715;51.570;6.036;2023-07-30T05:50:16;100927.13;;;17.84;84.78
49827;BME280;35715;51.570;6.036;2023-07-30T05:52:42;100925.47;;;17.86;84.32
49827;BME280;35715;51.570;6.036;2023-07-30T05:55:07;100927.94;;;17.83;84.41
49827;BME280;35715;51.570;6.036;2023-07-30T05:57:33;100923.63;;;17.84;84.38
49827;BME280;35715;51.570;6.036;2023-07-30T05:59:58;100925.34;;;17.83;84.45
49827;BME280;35715;51.570;6.036;2023-07-30T06:02:23;100927.41;;;17.90;84.48
49827;BME280;35715;51.570;6.036;2023-07-30T06:04:49;100929.31;;;17.95;84.23
49827;BME280;35715;51.570;6.036;2023-07-30T06:07:14;100932.09;;;17.99;83.83
49827;BME280;35715;51.570;6.036;2023-07-30T06:09:40;100926.94;;;18.01;83.73
49827;BME280;35715;51.570;6.036;2023-07-30T06:12:05;100924.44;;;18.04;83.91
49827;BME280;35715;51.570;6.036;2023-07-30T06:14:33;100924.63;;;18.08;83.45
49827;BME280;35715;51.570;6.036;2023-07-30T06:16:59;100929.13;;;18.13;83.99
49827;BME280;35715;51.570;6.036;2023-07-30T06:19:24;100923.06;;;18.14;83.52
49827;BME280;35715;51.570;6.036;2023-07-30T06:21:49;100926.88;;;18.22;83.69
49827;BME280;35715;51.570;6.036;2023-07-30T06:24:15;100926.28;;;18.29;83.63
49827;BME280;35715;51.570;6.036;2023-07-30T06:26:40;100930.81;;;18.35;83.44
49827;BME280;35715;51.570;6.036;2023-07-30T06:29:06;100930.81;;;18.35;83.23
49827;BME280;35715;51.570;6.036;2023-07-30T06:31:31;100938.75;;;18.38;83.10
49827;BME280;35715;51.570;6.036;2023-07-30T06:33:56;100928.09;;;18.32;83.32
49827;BME280;35715;51.570;6.036;2023-07-30T06:36:22;100937.81;;;18.36;83.46
49827;BME280;35715;51.570;6.036;2023-07-30T06:38:47;100924.94;;;18.40;82.97
49827;BME280;35715;51.570;6.036;2023-07-30T06:41:13;100933.06;;;18.48;83.26
49827;BME280;35715;51.570;6.036;2023-07-30T06:43:39;100933.91;;;18.47;82.88
49827;BME280;35715;51.570;6.036;2023-07-30T06:46:04;100924.38;;;18.49;83.08
49827;BME280;35715;51.570;6.036;2023-07-30T06:48:30;100920.09;;;18.51;83.17
49827;BME280;35715;51.570;6.036;2023-07-30T06:50:55;100921.06;;;18.53;82.80
49827;BME280;35715;51.570;6.036;2023-07-30T06:53:20;100921.00;;;18.52;82.58
49827;BME280;35715;51.570;6.036;2023-07-30T06:55:46;100921.88;;;18.52;82.71
49827;BME280;35715;51.570;6.036;2023-07-30T06:58:11;100922.81;;;18.54;82.53
49827;BME280;35715;51.570;6.036;2023-07-30T07:00:37;100929.91;;;18.57;82.70
49827;BME280;35715;51.570;6.036;2023-07-30T07:03:02;100935.28;;;18.61;82.76
49827;BME280;35715;51.570;6.036;2023-07-30T07:05:28;100932.94;;;18.69;82.83
49827;BME280;35715;51.570;6.036;2023-07-30T07:07:54;100938.22;;;18.71;82.12
49827;BME280;35715;51.570;6.036;2023-07-30T07:10:19;100931.34;;;18.73;82.53
49827;BME280;35715;51.570;6.036;2023-07-30T07:12:45;100935.78;;;18.75;81.86
49827;BME280;35715;51.570;6.036;2023-07-30T07:15:10;100934.28;;;18.82;82.35
49827;BME280;35715;51.570;6.036;2023-07-30T07:17:36;100938.13;;;18.92;81.54
49827;BME280;35715;51.570;6.036;2023-07-30T07:20:01;100936.91;;;19.06;81.83
49827;BME280;35715;51.570;6.036;2023-07-30T07:22:29;100932.09;;;19.19;80.20
49827;BME280;35715;51.570;6.036;2023-07-30T07:24:54;100939.81;;;19.41;80.22
49827;BME280;35715;51.570;6.036;2023-07-30T07:27:20;100940.91;;;19.48;79.35
49827;BME280;35715;51.570;6.036;2023-07-30T07:29:45;100939.38;;;19.55;79.08
49827;BME280;35715;51.570;6.036;2023-07-30T07:32:11;100941.34;;;19.62;79.12
49827;BME280;35715;51.570;6.036;2023-07-30T07:34:39;100941.69;;;19.73;78.93
49827;BME280;35715;51.570;6.036;2023-07-30T07:37:04;100943.97;;;19.89;77.82
49827;BME280;35715;51.570;6.036;2023-07-30T07:39:33;100935.97;;;19.84;77.40
49827;BME280;35715;51.570;6.036;2023-07-30T07:41:58;100942.59;;;19.73;77.80
49827;BME280;35715;51.570;6.036;2023-07-30T07:44:23;100938.00;;;19.66;78.55
49827;BME280;35715;51.570;6.036;2023-07-30T07:46:49;100941.22;;;19.84;78.87
49827;BME280;35715;51.570;6.036;2023-07-30T07:49:14;100937.53;;;20.98;76.30
49827;BME280;35715;51.570;6.036;2023-07-30T07:51:40;100943.53;;;21.98;71.86
49827;BME280;35715;51.570;6.036;2023-07-30T07:54:05;100939.31;;;22.46;69.68
49827;BME280;35715;51.570;6.036;2023-07-30T07:56:31;100947.09;;;23.87;66.27
49827;BME280;35715;51.570;6.036;2023-07-30T07:58:57;100948.34;;;23.55;64.67
49827;BME280;35715;51.570;6.036;2023-07-30T08:01:22;100953.56;;;24.07;63.21
49827;BME280;35715;51.570;6.036;2023-07-30T08:03:48;100954.25;;;23.94;63.10
49827;BME280;35715;51.570;6.036;2023-07-30T08:06:13;100943.09;;;24.14;61.47
49827;BME280;35715;51.570;6.036;2023-07-30T08:08:38;100956.00;;;23.95;61.51
49827;BME280;35715;51.570;6.036;2023-07-30T08:11:08;100950.28;;;24.25;60.20
49827;BME280;35715;51.570;6.036;2023-07-30T08:13:34;100947.81;;;25.19;58.51
49827;BME280;35715;51.570;6.036;2023-07-30T08:16:00;100943.19;;;25.99;55.61
49827;BME280;35715;51.570;6.036;2023-07-30T08:18:26;100943.88;;;25.74;55.48
49827;BME280;35715;51.570;6.036;2023-07-30T08:20:51;100943.00;;;25.73;55.06
49827;BME280;35715;51.570;6.036;2023-07-30T08:23:16;100943.13;;;25.95;55.88
49827;BME280;35715;51.570;6.036;2023-07-30T08:25:42;100950.34;;;26.17;54.15
49827;BME280;35715;51.570;6.036;2023-07-30T08:28:07;100949.97;;;25.59;54.86
49827;BME280;35715;51.570;6.036;2023-07-30T08:30:33;100952.19;;;25.14;55.48
49827;BME280;35715;51.570;6.036;2023-07-30T08:32:58;100945.72;;;24.84;56.41
49827;BME280;35715;51.570;6.036;2023-07-30T08:35:23;100949.66;;;24.48;56.60
49827;BME280;35715;51.570;6.036;2023-07-30T08:37:49;100957.69;;;23.90;57.26
49827;BME280;35715;51.570;6.036;2023-07-30T08:40:14;100954.09;;;23.31;58.69
49827;BME280;35715;51.570;6.036;2023-07-30T08:42:40;100962.38;;;23.54;58.17
49827;BME280;35715;51.570;6.036;2023-07-30T08:45:07;100961.56;;;23.59;57.69
49827;BME280;35715;51.570;6.036;2023-07-30T08:47:35;100954.47;;;24.78;56.43
49827;BME280;35715;51.570;6.036;2023-07-30T08:50:01;100954.84;;;24.40;55.08
49827;BME280;35715;51.570;6.036;2023-07-30T08:52:28;100951.94;;;24.89;54.41
49827;BME280;35715;51.570;6.036;2023-07-30T08:54:54;100957.44;;;26.29;52.33
49827;BME280;35715;51.570;6.036;2023-07-30T08:57:22;100948.59;;;26.15;51.33
49827;BME280;35715;51.570;6.036;2023-07-30T08:59:56;100957.41;;;26.21;51.61
49827;BME280;35715;51.570;6.036;2023-07-30T09:02:30;100952.19;;;26.35;51.25
49827;BME280;35715;51.570;6.036;2023-07-30T09:04:58;100964.03;;;25.59;51.41
49827;BME280;35715;51.570;6.036;2023-07-30T09:07:25;100964.25;;;24.92;52.74
49827;BME280;35715;51.570;6.036;2023-07-30T09:09:50;100960.84;;;24.25;54.24
49827;BME280;35715;51.570;6.036;2023-07-30T09:12:16;100965.25;;;23.68;55.56
49827;BME280;35715;51.570;6.036;2023-07-30T09:14:42;100958.25;;;23.18;56.35
49827;BME280;35715;51.570;6.036;2023-07-30T09:17:11;100970.69;;;22.81;57.43
49827;BME280;35715;51.570;6.036;2023-07-30T09:19:36;100966.81;;;22.62;58.51
49827;BME280;35715;51.570;6.036;2023-07-30T09:22:06;100975.03;;;22.35;58.37
49827;BME280;35715;51.570;6.036;2023-07-30T09:24:31;100978.31;;;22.26;59.26
49827;BME280;35715;51.570;6.036;2023-07-30T09:27:01;100979.94;;;22.21;60.07
49827;BME280;35715;51.570;6.036;2023-07-30T09:29:27;100987.94;;;22.26;60.63
49827;BME280;35715;51.570;6.036;2023-07-30T09:31:53;100986.25;;;22.29;60.57
49827;BME280;35715;51.570;6.036;2023-07-30T09:34:21;100977.31;;;22.21;60.95
49827;BME280;35715;51.570;6.036;2023-07-30T09:36:48;100985.06;;;22.15;61.94
49827;BME280;35715;51.570;6.036;2023-07-30T09:39:25;100987.81;;;21.83;60.89
49827;BME280;35715;51.570;6.036;2023-07-30T09:41:53;100980.00;;;21.86;62.32
49827;BME280;35715;51.570;6.036;2023-07-30T09:44:24;100982.81;;;21.92;62.63
49827;BME280;35715;51.570;6.036;2023-07-30T09:46:50;100985.78;;;22.08;61.74
49827;BME280;35715;51.570;6.036;2023-07-30T09:49:16;100976.94;;;22.42;61.19
49827;BME280;35715;51.570;6.036;2023-07-30T09:51:42;100987.72;;;23.00;60.02
49827;BME280;35715;51.570;6.036;2023-07-30T09:54:08;100978.94;;;22.98;57.64
49827;BME280;35715;51.570;6.036;2023-07-30T09:56:36;100982.13;;;22.82;57.80
49827;BME280;35715;51.570;6.036;2023-07-30T09:59:03;100976.09;;;22.89;58.23
49827;BME280;35715;51.570;6.036;2023-07-30T10:01:30;100971.66;;;23.32;57.59
49827;BME280;35715;51.570;6.036;2023-07-30T10:03:57;100980.09;;;23.65;56.58
49827;BME280;35715;51.570;6.036;2023-07-30T10:06:25;100971.13;;;23.53;56.63
49827;BME280;35715;51.570;6.036;2023-07-30T10:08:53;100971.75;;;23.37;56.35
49827;BME280;35715;51.570;6.036;2023-07-30T10:11:22;100967.94;;;23.19;55.22
49827;BME280;35715;51.570;6.036;2023-07-30T10:13:49;100969.13;;;23.38;55.47
49827;BME280;35715;51.570;6.036;2023-07-30T10:16:15;100980.47;;;23.34;54.49
49827;BME280;35715;51.570;6.036;2023-07-30T10:18:42;100976.72;;;23.20;55.37
49827;BME280;35715;51.570;6.036;2023-07-30T10:21:08;100974.69;;;23.07;55.40
49827;BME280;35715;51.570;6.036;2023-07-30T10:23:35;100975.03;;;23.25;55.05
49827;BME280;35715;51.570;6.036;2023-07-30T10:26:09;100970.31;;;23.09;54.86
49827;BME280;35715;51.570;6.036;2023-07-30T10:28:35;100969.38;;;23.05;55.39
49827;BME280;35715;51.570;6.036;2023-07-30T10:31:06;100967.66;;;23.07;55.33
49827;BME280;35715;51.570;6.036;2023-07-30T10:33:51;100966.00;;;23.09;54.51
49827;BME280;35715;51.570;6.036;2023-07-30T10:36:30;100974.09;;;23.20;54.48
49827;BME280;35715;51.570;6.036;2023-07-30T10:38:55;100973.31;;;23.26;55.45
49827;BME280;35715;51.570;6.036;2023-07-30T10:41:21;100969.44;;;23.57;54.01
49827;BME280;35715;51.570;6.036;2023-07-30T10:43:49;100984.13;;;23.96;52.24
49827;BME280;35715;51.570;6.036;2023-07-30T10:46:19;100982.34;;;23.95;52.45
49827;BME280;35715;51.570;6.036;2023-07-30T10:48:46;100987.38;;;23.81;52.95
49827;BME280;35715;51.570;6.036;2023-07-30T10:51:15;100980.88;;;23.58;53.07
49827;BME280;35715;51.570;6.036;2023-07-30T10:53:45;100988.91;;;23.65;53.42
49827;BME280;35715;51.570;6.036;2023-07-30T10:56:11;100986.75;;;23.43;52.95
49827;BME280;35715;51.570;6.036;2023-07-30T10:58:38;100998.50;;;23.13;54.05
49827;BME280;35715;51.570;6.036;2023-07-30T11:01:07;101003.31;;;22.90;54.65
49827;BME280;35715;51.570;6.036;2023-07-30T11:03:34;101004.84;;;22.80;55.69
49827;BME280;35715;51.570;6.036;2023-07-30T11:06:01;100999.72;;;22.86;57.19
49827;BME280;35715;51.570;6.036;2023-07-30T11:08:37;101009.50;;;22.93;56.79
49827;BME280;35715;51.570;6.036;2023-07-30T11:11:04;101015.56;;;22.89;56.86
49827;BME280;35715;51.570;6.036;2023-07-30T11:13:38;101014.59;;;22.84;56.93
49827;BME280;35715;51.570;6.036;2023-07-30T11:16:05;101015.41;;;22.81;57.06
49827;BME280;35715;51.570;6.036;2023-07-30T11:18:32;101017.63;;;23.04;57.08
49827;BME280;35715;51.570;6.036;2023-07-30T11:21:26;101023.84;;;23.08;54.85
49827;BME280;35715;51.570;6.036;2023-07-30T11:23:52;101009.53;;;22.95;55.85
49827;BME280;35715;51.570;6.036;2023-07-30T11:26:19;101019.00;;;22.85;56.42
49827;BME280;35715;51.570;6.036;2023-07-30T11:28:44;101034.66;;;22.77;56.59
49827;BME280;35715;51.570;6.036;2023-07-30T11:31:15;101033.19;;;22.50;56.34
49827;BME280;35715;51.570;6.036;2023-07-30T11:33:43;101038.09;;;22.33;58.58
49827;BME280;35715;51.570;6.036;2023-07-30T11:36:14;101040.06;;;22.07;58.92
49827;BME280;35715;51.570;6.036;2023-07-30T11:38:40;101027.56;;;21.97;60.63
49827;BME280;35715;51.570;6.036;2023-07-30T11:41:06;101028.69;;;22.08;60.62
49827;BME280;35715;51.570;6.036;2023-07-30T11:43:36;101024.72;;;23.55;59.53
49827;BME280;35715;51.570;6.036;2023-07-30T11:46:09;101026.19;;;23.38;58.34
49827;BME280;35715;51.570;6.036;2023-07-30T11:48:35;101034.34;;;23.06;58.23
49827;BME280;35715;51.570;6.036;2023-07-30T11:51:03;101030.31;;;22.81;58.83
49827;BME280;35715;51.570;6.036;2023-07-30T11:56:22;101038.19;;;22.38;61.17
49827;BME280;35715;51.570;6.036;2023-07-30T11:58:49;101042.28;;;22.28;62.97
49827;BME280;35715;51.570;6.036;2023-07-30T12:01:15;101056.81;;;22.11;63.69
49827;BME280;35715;51.570;6.036;2023-07-30T12:03:41;101043.16;;;21.89;63.91
49827;BME280;35715;51.570;6.036;2023-07-30T12:06:08;101052.31;;;21.70;66.04
49827;BME280;35715;51.570;6.036;2023-07-30T12:08:34;101063.41;;;21.60;66.38
49827;BME280;35715;51.570;6.036;2023-07-30T12:11:08;101061.53;;;21.56;67.38
49827;BME280;35715;51.570;6.036;2023-07-30T12:13:42;101071.94;;;21.51;68.06
49827;BME280;35715;51.570;6.036;2023-07-30T12:16:09;101066.44;;;21.75;69.10
49827;BME280;35715;51.570;6.036;2023-07-30T12:18:34;101069.28;;;22.20;68.24
49827;BME280;35715;51.570;6.036;2023-07-30T12:20:59;101068.16;;;22.46;67.75
49827;BME280;35715;51.570;6.036;2023-07-30T12:23:25;101064.13;;;23.49;65.25
49827;BME280;35715;51.570;6.036;2023-07-30T12:25:50;101061.19;;;24.36;63.36
49827;BME280;35715;51.570;6.036;2023-07-30T12:28:16;101065.66;;;25.08;62.69
49827;BME280;35715;51.570;6.036;2023-07-30T12:30:41;101059.91;;;25.46;60.57
49827;BME280;35715;51.570;6.036;2023-07-30T12:33:07;101047.19;;;25.98;58.00
49827;BME280;35715;51.570;6.036;2023-07-30T12:35:32;101057.09;;;26.29;54.25
49827;BME280;35715;51.570;6.036;2023-07-30T12:37:58;101040.50;;;26.59;53.81
49827;BME280;35715;51.570;6.036;2023-07-30T12:40:24;101043.28;;;26.84;52.22
49827;BME280;35715;51.570;6.036;2023-07-30T12:42:49;101036.25;;;26.90;50.22
49827;BME280;35715;51.570;6.036;2023-07-30T12:45:15;101032.72;;;26.99;49.06
49827;BME280;35715;51.570;6.036;2023-07-30T12:47:41;101039.81;;;26.97;48.25